Time;durP1;ratioP1;P1;durP2;ratioP2;P2;SDS_P1;SDS_P2;PMS_P1;PMS_P2;Temp;Humidity;BMP_temperature;BMP_pressure;BME280_temperature;BME280_humidity;BME280_pressure;Samples;Min_cycle;Max_cycle;Signal;HPM_P1;HPM_P2
2022/08/08 00:02:04;;;;;;;3.58;2.90;;;20.60;82.70;;;;;;5131466;27;20593;-38
2022/08/08 00:05:29;;;;;;;5.47;3.40;;;20.60;82.60;;;;;;5110349;28;20224;-37
2022/08/08 00:08:25;;;;;;;3.45;2.80;;;20.60;82.80;;;;;;5111990;27;20194;-38
2022/08/08 00:11:41;;;;;;;4.50;3.47;;;20.50;82.40;;;;;;5131245;27;20223;-37
2022/08/08 00:14:46;;;;;;;4.78;3.28;;;20.50;82.80;;;;;;5131076;27;20206;-38
2022/08/08 00:17:26;;;;;;;4.75;3.40;;;20.40;82.70;;;;;;5127762;27;20209;-38
2022/08/08 00:20:20;;;;;;;4.20;3.13;;;20.40;82.50;;;;;;5120472;27;20202;-38
2022/08/08 00:22:53;;;;;;;4.10;3.03;;;20.40;82.80;;;;;;5116429;27;20310;-37
2022/08/08 00:25:36;;;;;;;3.97;3.33;;;20.40;82.60;;;;;;5130646;27;20905;-37
2022/08/08 00:28:23;;;;;;;9.20;3.78;;;20.40;84.10;;;;;;5128237;27;20205;-37
2022/08/08 00:31:18;;;;;;;4.57;3.50;;;20.40;83.60;;;;;;5130748;27;20229;-37
2022/08/08 00:37:28;;;;;;;4.78;3.40;;;20.40;83.60;;;;;;5127221;27;20550;-37
2022/08/08 00:40:28;;;;;;;8.05;3.38;;;20.30;83.00;;;;;;5119865;27;20289;-37
2022/08/08 00:43:36;;;;;;;6.03;3.72;;;20.20;82.90;;;;;;5103186;27;20202;-37
2022/08/08 00:46:16;;;;;;;6.05;3.90;;;20.20;82.80;;;;;;5130339;27;20233;-37
2022/08/08 00:48:57;;;;;;;4.28;3.85;;;20.20;84.00;;;;;;5127183;27;20205;-37
2022/08/08 00:51:44;;;;;;;4.47;3.88;;;20.20;83.90;;;;;;5129764;27;20278;-37
2022/08/08 00:54:29;;;;;;;5.78;3.97;;;20.20;83.50;;;;;;5121163;27;20202;-38
2022/08/08 00:57:21;;;;;;;6.55;4.38;;;20.10;83.40;;;;;;5120131;27;20202;-37
2022/08/08 01:00:34;;;;;;;8.82;4.07;;;20.10;83.60;;;;;;5128731;27;20240;-38
2022/08/08 01:03:52;;;;;;;5.03;4.03;;;20.00;83.30;;;;;;5088589;27;20679;-37
2022/08/08 01:06:32;;;;;;;5.20;4.30;;;20.00;83.80;;;;;;5121829;27;20221;-37
2022/08/08 01:09:27;;;;;;;4.68;4.00;;;19.90;83.50;;;;;;5115652;27;20293;-37
2022/08/08 01:12:50;;;;;;;6.47;3.83;;;19.90;84.10;;;;;;5114880;27;20194;-37
2022/08/08 01:15:56;;;;;;;8.65;4.00;;;19.90;84.30;;;;;;5123191;27;20264;-38
2022/08/08 01:18:50;;;;;;;6.07;4.60;;;19.80;84.10;;;;;;5115879;27;20194;-37
2022/08/08 01:21:29;;;;;;;4.63;4.22;;;19.70;83.50;;;;;;5111488;27;20206;-37
2022/08/08 01:24:31;;;;;;;5.80;4.65;;;19.70;83.90;;;;;;5095789;28;20580;-37
2022/08/08 01:27:37;;;;;;;5.63;4.70;;;19.70;84.30;;;;;;5111370;27;20290;-37
2022/08/08 01:30:50;;;;;;;9.05;4.45;;;19.80;84.40;;;;;;5114387;27;20675;-37
2022/08/08 01:33:33;;;;;;;9.77;4.20;;;19.70;83.80;;;;;;5108862;28;20275;-38
2022/08/08 01:36:45;;;;;;;6.03;4.47;;;19.70;84.60;;;;;;5107373;28;20209;-37
2022/08/08 01:39:26;;;;;;;6.63;4.63;;;19.60;84.50;;;;;;5125592;27;20214;-37
2022/08/08 01:42:14;;;;;;;6.28;4.32;;;19.60;84.20;;;;;;5129661;27;20618;-38
2022/08/08 01:45:28;;;;;;;6.28;4.43;;;19.60;84.30;;;;;;5124012;27;20618;-38
2022/08/08 01:48:13;;;;;;;6.18;4.45;;;19.60;84.60;;;;;;5088000;27;20296;-38
2022/08/08 01:51:19;;;;;;;7.18;4.70;;;19.50;84.80;;;;;;5128624;27;20256;-38
2022/08/08 01:54:24;;;;;;;9.50;5.00;;;19.50;85.60;;;;;;5128768;27;20288;-38
2022/08/08 01:57:49;;;;;;;9.48;5.88;;;19.50;86.40;;;;;;5144039;27;20322;-38
2022/08/08 02:00:49;;;;;;;8.48;5.38;;;19.40;87.20;;;;;;5093293;28;20699;-38
2022/08/08 02:03:50;;;;;;;7.20;5.03;;;19.40;86.40;;;;;;5109212;27;20210;-38
2022/08/08 02:06:53;;;;;;;8.30;4.68;;;19.30;85.90;;;;;;5127171;27;20229;-38
2022/08/08 02:09:50;;;;;;;7.75;4.63;;;19.20;85.50;;;;;;5126557;27;20205;-38
2022/08/08 02:12:54;;;;;;;7.40;5.22;;;19.20;85.20;;;;;;5128709;27;20197;-38
2022/08/08 02:15:21;;;;;;;7.45;5.28;;;19.20;85.50;;;;;;5128531;27;20297;-38
2022/08/08 02:18:12;;;;;;;5.78;5.03;;;19.10;85.20;;;;;;5125254;27;20591;-38
2022/08/08 02:23:58;;;;;;;8.02;5.78;;;19.10;85.40;;;;;;5111919;27;20214;-38
2022/08/08 02:26:33;;;;;;;8.20;5.50;;;19.10;85.80;;;;;;5118817;27;20280;-38
2022/08/08 02:29:18;;;;;;;8.95;5.72;;;19.00;85.50;;;;;;5125525;27;20248;-38
2022/08/08 02:32:05;;;;;;;5.50;4.97;;;19.00;85.60;;;;;;5128500;27;20307;-38
2022/08/08 02:34:59;;;;;;;11.48;6.07;;;19.10;87.40;;;;;;5127936;27;20209;-38
2022/08/08 02:38:15;;;;;;;7.30;5.65;;;19.10;87.00;;;;;;5108269;27;20194;-38
2022/08/08 02:41:18;;;;;;;7.50;6.50;;;19.00;86.10;;;;;;5125249;27;20228;-38
2022/08/08 02:44:38;;;;;;;10.20;6.13;;;19.00;86.50;;;;;;5127925;27;20629;-38
2022/08/08 02:47:52;;;;;;;8.95;6.13;;;19.00;87.30;;;;;;5129731;27;20261;-38
2022/08/08 02:50:45;;;;;;;8.27;5.82;;;18.90;86.70;;;;;;5134705;27;20592;-38
2022/08/08 02:53:21;;;;;;;11.50;6.50;;;18.90;86.30;;;;;;5108513;27;20238;-38
2022/08/08 02:56:02;;;;;;;7.80;5.93;;;18.90;86.30;;;;;;5113822;27;20206;-38
2022/08/08 02:59:10;;;;;;;6.93;6.22;;;18.90;86.70;;;;;;5125206;27;20236;-38
2022/08/08 03:02:21;;;;;;;9.05;6.30;;;18.80;86.80;;;;;;5128193;27;20613;-38
2022/08/08 03:05:08;;;;;;;7.93;6.75;;;18.80;86.80;;;;;;5138091;27;20303;-38
2022/08/08 03:07:51;;;;;;;7.70;6.28;;;18.80;86.80;;;;;;5146127;27;20258;-38
2022/08/08 03:10:45;;;;;;;7.43;6.57;;;18.80;87.00;;;;;;5108025;28;20224;-38
2022/08/08 03:13:57;;;;;;;10.52;7.35;;;18.70;86.90;;;;;;5117476;28;20186;-38
2022/08/08 03:16:59;;;;;;;10.30;6.53;;;18.70;86.70;;;;;;5087531;28;20312;-38
2022/08/08 03:20:07;;;;;;;12.52;7.28;;;18.70;87.40;;;;;;5090311;28;20193;-38
2022/08/08 03:22:51;;;;;;;12.23;8.10;;;18.70;87.70;;;;;;5144103;27;20232;-38
2022/08/08 03:25:30;;;;;;;8.95;7.50;;;18.70;89.10;;;;;;5148310;27;20219;-38
2022/08/08 03:28:11;;;;;;;12.35;7.57;;;18.60;89.60;;;;;;5100832;27;20619;-38
2022/08/08 03:30:46;;;;;;;8.93;7.25;;;18.60;87.80;;;;;;5113381;27;20263;-38
2022/08/08 03:33:18;;;;;;;8.45;6.97;;;18.50;87.10;;;;;;5132209;27;20205;-38
2022/08/08 03:36:06;;;;;;;10.43;7.75;;;18.50;87.90;;;;;;5110860;28;20212;-38
2022/08/08 03:38:37;;;;;;;11.13;8.75;;;18.50;87.90;;;;;;5116295;27;20201;-38
2022/08/08 03:41:34;;;;;;;9.45;8.00;;;18.40;87.70;;;;;;5132377;27;20707;-38
2022/08/08 03:44:21;;;;;;;13.10;8.38;;;18.40;87.70;;;;;;5120818;27;20198;-38
2022/08/08 03:46:52;;;;;;;11.77;8.38;;;18.40;87.60;;;;;;5111981;27;20312;-38
2022/08/08 03:49:27;;;;;;;10.63;8.32;;;18.40;87.60;;;;;;5122383;27;20207;-38
2022/08/08 03:52:15;;;;;;;10.70;8.30;;;18.30;87.80;;;;;;5116666;27;20217;-37
2022/08/08 03:54:44;;;;;;;9.38;8.43;;;18.30;87.70;;;;;;5113167;27;20297;-37
2022/08/08 03:57:31;;;;;;;11.57;8.18;;;18.30;88.30;;;;;;5111646;28;20201;-38
2022/08/08 04:00:22;;;;;;;10.30;8.15;;;18.30;87.80;;;;;;5128846;27;20205;-38
2022/08/08 04:02:57;;;;;;;10.98;8.30;;;18.30;87.80;;;;;;5111962;28;20208;-37
2022/08/08 04:05:34;;;;;;;12.60;9.65;;;18.20;87.80;;;;;;5112152;27;20853;-38
2022/08/08 04:08:06;;;;;;;14.07;8.15;;;18.20;88.30;;;;;;5129927;27;20294;-37
2022/08/08 04:10:36;;;;;;;12.88;9.00;;;18.20;88.10;;;;;;5110748;28;20696;-37
2022/08/08 04:13:06;;;;;;;11.75;8.20;;;18.20;88.10;;;;;;5092823;28;20230;-37
2022/08/08 04:15:47;;;;;;;11.38;9.15;;;18.20;87.80;;;;;;5128699;27;20679;-37
2022/08/08 04:18:32;;;;;;;14.45;9.13;;;18.20;89.10;;;;;;5123793;27;20771;-37
2022/08/08 04:21:13;;;;;;;12.90;9.38;;;18.20;88.70;;;;;;5111385;27;20202;-37
2022/08/08 04:23:49;;;;;;;10.27;8.40;;;18.20;88.50;;;;;;5110551;28;20194;-38
2022/08/08 04:26:36;;;;;;;13.07;8.90;;;18.10;88.40;;;;;;5110775;28;20209;-37
2022/08/08 04:29:23;;;;;;;12.38;10.30;;;18.10;88.40;;;;;;5096400;28;20601;-38
2022/08/08 04:31:53;;;;;;;12.45;9.60;;;18.10;91.30;;;;;;5110355;28;20225;-37
2022/08/08 04:34:28;;;;;;;11.85;9.43;;;18.10;90.50;;;;;;5116883;27;20740;-38
2022/08/08 04:37:18;;;;;;;10.43;9.30;;;18.10;90.10;;;;;;5129020;27;20206;-37
2022/08/08 04:39:52;;;;;;;13.38;9.20;;;18.10;90.20;;;;;;5124598;27;20908;-38
2022/08/08 04:42:36;;;;;;;12.05;8.85;;;18.00;90.10;;;;;;5130635;27;20233;-37
2022/08/08 04:45:13;;;;;;;12.23;8.90;;;18.00;89.60;;;;;;5113302;27;20223;-37
2022/08/08 04:47:44;;;;;;;10.57;8.70;;;18.00;89.60;;;;;;5130529;27;20246;-37
2022/08/08 04:50:13;;;;;;;13.63;10.63;;;17.90;90.00;;;;;;5109905;27;20202;-37
2022/08/08 04:52:53;;;;;;;13.38;9.43;;;18.00;91.50;;;;;;5110404;27;20701;-37
2022/08/08 04:55:29;;;;;;;12.10;9.68;;;17.90;90.10;;;;;;5126080;27;20208;-37
2022/08/08 04:58:16;;;;;;;11.00;9.05;;;17.90;90.20;;;;;;5144849;27;20801;-37
2022/08/08 05:00:44;;;;;;;10.98;9.63;;;17.80;90.20;;;;;;5116134;27;20202;-37
2022/08/08 05:03:14;;;;;;;11.63;9.50;;;17.80;90.00;;;;;;5112550;27;20278;-37
2022/08/08 05:06:04;;;;;;;13.02;9.82;;;17.80;90.00;;;;;;5129580;27;20198;-37
2022/08/08 05:08:47;;;;;;;14.27;10.57;;;17.80;89.90;;;;;;5118699;27;20186;-37
2022/08/08 05:11:19;;;;;;;12.32;10.68;;;17.80;90.20;;;;;;5128719;27;20304;-37
2022/08/08 05:13:53;;;;;;;13.00;10.93;;;17.80;90.60;;;;;;5107619;27;20193;-37
2022/08/08 05:16:28;;;;;;;12.98;10.40;;;17.80;91.00;;;;;;5112268;27;20785;-37
2022/08/08 05:19:17;;;;;;;12.57;10.63;;;17.80;90.80;;;;;;5118039;27;20194;-37
2022/08/08 05:22:06;;;;;;;12.50;9.48;;;17.80;90.40;;;;;;5122043;27;20198;-37
2022/08/08 05:24:35;;;;;;;13.60;10.57;;;17.80;90.30;;;;;;5093065;27;20290;-37
2022/08/08 05:27:04;;;;;;;14.32;10.57;;;17.80;90.40;;;;;;5115067;27;20206;-37
2022/08/08 05:29:36;;;;;;;12.52;9.77;;;17.80;90.30;;;;;;5121326;27;20774;-37
2022/08/08 05:32:08;;;;;;;11.27;9.80;;;17.90;90.30;;;;;;5111757;27;20222;-37
2022/08/08 05:34:47;;;;;;;11.32;9.68;;;17.90;90.40;;;;;;5120745;27;20288;-37
2022/08/08 05:37:27;;;;;;;14.60;10.40;;;17.90;90.40;;;;;;5129093;27;20563;-37
2022/08/08 05:40:16;;;;;;;12.65;10.52;;;17.90;90.60;;;;;;5117347;27;20199;-36
2022/08/08 05:42:52;;;;;;;11.73;10.27;;;17.90;90.90;;;;;;5109471;27;20247;-37
2022/08/08 05:45:22;;;;;;;11.95;9.90;;;18.00;90.50;;;;;;5117766;27;20304;-37
2022/08/08 05:48:03;;;;;;;11.07;9.63;;;18.00;90.60;;;;;;5101385;27;20206;-36
2022/08/08 05:50:37;;;;;;;14.77;10.95;;;18.00;90.50;;;;;;5112853;27;20677;-37
2022/08/08 05:53:08;;;;;;;13.48;10.40;;;18.00;90.80;;;;;;5114301;27;20300;-36
2022/08/08 05:55:58;;;;;;;16.52;10.00;;;18.10;90.70;;;;;;5115939;27;20220;-37
2022/08/08 05:58:43;;;;;;;13.52;10.70;;;18.10;91.00;;;;;;5091738;27;20244;-37
2022/08/08 06:01:26;;;;;;;14.10;10.95;;;18.20;91.00;;;;;;5098967;28;20201;-37
2022/08/08 06:04:17;;;;;;;12.90;10.43;;;18.20;91.90;;;;;;5103136;28;20214;-36
2022/08/08 06:06:52;;;;;;;11.30;9.60;;;18.20;91.40;;;;;;5107984;28;20205;-36
2022/08/08 06:09:31;;;;;;;13.32;9.30;;;18.30;91.00;;;;;;5101398;28;20194;-36
2022/08/08 06:12:21;;;;;;;12.13;9.82;;;18.20;91.00;;;;;;5094646;28;20215;-37
2022/08/08 06:15:02;;;;;;;10.52;8.95;;;18.30;90.90;;;;;;5097344;28;20600;-37
2022/08/08 06:17:34;;;;;;;14.65;9.85;;;18.30;91.00;;;;;;5096032;28;20289;-37
2022/08/08 06:20:21;;;;;;;14.40;9.77;;;18.30;90.90;;;;;;5092581;28;20191;-37
2022/08/08 06:22:52;;;;;;;12.90;9.48;;;18.30;91.10;;;;;;5103798;27;20217;-36
2022/08/08 06:25:19;;;;;;;12.38;9.50;;;18.30;90.90;;;;;;5103998;28;20690;-37
2022/08/08 06:28:14;;;;;;;13.18;9.30;;;18.40;91.10;;;;;;5100056;28;20248;-37
2022/08/08 06:30:43;;;;;;;12.85;9.82;;;18.40;91.20;;;;;;5094907;28;20665;-37
2022/08/08 06:33:16;;;;;;;11.65;8.63;;;18.40;91.10;;;;;;5107243;28;20230;-37
2022/08/08 06:36:04;;;;;;;12.50;9.05;;;18.50;91.10;;;;;;5088310;28;20595;-37
2022/08/08 06:38:36;;;;;;;11.77;9.55;;;18.50;91.20;;;;;;5094277;28;20206;-37
2022/08/08 06:41:11;;;;;;;14.35;9.43;;;18.60;91.40;;;;;;5094920;28;20260;-37
2022/08/08 06:43:45;;;;;;;16.35;9.65;;;18.60;92.10;;;;;;5106937;28;20210;-37
2022/08/08 06:46:23;;;;;;;12.88;8.27;;;18.70;91.70;;;;;;5109475;27;20575;-37
2022/08/08 06:48:50;;;;;;;10.48;8.75;;;18.70;91.70;;;;;;5103562;27;20218;-37
2022/08/08 06:51:20;;;;;;;12.27;8.18;;;18.80;92.00;;;;;;5097884;27;20659;-37
2022/08/08 06:53:51;;;;;;;10.75;8.65;;;18.80;91.60;;;;;;5115431;27;20289;-37
2022/08/08 06:56:23;;;;;;;12.23;7.85;;;18.90;91.70;;;;;;5095996;28;20645;-37
2022/08/08 06:58:56;;;;;;;10.52;8.23;;;18.90;91.70;;;;;;5119701;27;20247;-37
2022/08/08 07:01:26;;;;;;;11.90;8.18;;;19.00;92.60;;;;;;5126546;27;20636;-37
2022/08/08 07:04:28;;;;;;;9.15;7.80;;;19.10;91.80;;;;;;5125616;27;20204;-37
2022/08/08 07:07:21;;;;;;;13.90;7.82;;;19.10;91.90;;;;;;5117752;27;20509;-37
2022/08/08 07:10:00;;;;;;;11.98;7.50;;;19.20;92.60;;;;;;5146407;27;20701;-37
2022/08/08 07:12:41;;;;;;;10.98;7.47;;;19.30;92.10;;;;;;5107822;28;20222;-37
2022/08/08 07:15:11;;;;;;;11.13;8.55;;;19.40;92.00;;;;;;5109498;27;20520;-37
2022/08/08 07:18:05;;;;;;;10.60;7.03;;;19.40;92.30;;;;;;5095428;27;20198;-37
2022/08/08 07:21:02;;;;;;;7.85;6.95;;;19.50;92.40;;;;;;5110690;28;20194;-37
2022/08/08 07:23:55;;;;;;;9.00;8.05;;;19.50;92.50;;;;;;5117331;27;20209;-37
2022/08/08 07:26:32;;;;;;;10.02;7.55;;;19.50;92.80;;;;;;5110665;27;20201;-37
2022/08/08 07:29:03;;;;;;;8.80;7.60;;;19.60;92.50;;;;;;5115438;27;20203;-37
2022/08/08 07:31:35;;;;;;;11.13;8.63;;;19.60;92.60;;;;;;5119911;27;20236;-37
2022/08/08 07:34:03;;;;;;;10.95;7.57;;;19.70;93.00;;;;;;5088602;28;20206;-37
2022/08/08 07:36:42;;;;;;;10.05;6.72;;;19.70;92.50;;;;;;5117658;28;20226;-37
2022/08/08 07:39:20;;;;;;;12.82;6.53;;;19.80;92.60;;;;;;5079079;28;20197;-37
2022/08/08 07:41:59;;;;;;;8.13;5.97;;;19.80;92.70;;;;;;5123458;28;20316;-37
2022/08/08 07:44:31;;;;;;;7.43;6.25;;;19.90;92.70;;;;;;5125118;27;20556;-37
2022/08/08 07:47:07;;;;;;;9.38;6.32;;;19.90;92.80;;;;;;5122532;28;20198;-37
2022/08/08 07:49:35;;;;;;;6.90;6.20;;;20.00;92.90;;;;;;5120072;28;20628;-37
2022/08/08 07:52:11;;;;;;;8.70;6.30;;;20.00;93.00;;;;;;5118507;27;20218;-37
2022/08/08 07:55:02;;;;;;;7.43;5.95;;;20.10;93.20;;;;;;5120209;28;20292;-37
2022/08/08 07:57:37;;;;;;;8.13;5.88;;;20.10;93.20;;;;;;5107082;28;20264;-37
2022/08/08 08:00:15;;;;;;;8.48;6.47;;;20.20;93.40;;;;;;5121910;27;20221;-37
2022/08/08 08:02:50;;;;;;;6.70;5.32;;;20.20;93.20;;;;;;5094715;28;20588;-37
2022/08/08 08:05:18;;;;;;;11.15;5.93;;;20.20;93.30;;;;;;5117100;28;20337;-37
2022/08/08 08:08:01;;;;;;;7.43;5.78;;;20.30;93.20;;;;;;5120312;27;20207;-36
2022/08/08 08:10:32;;;;;;;8.48;6.20;;;20.30;93.20;;;;;;5121317;27;20263;-37
2022/08/08 08:13:36;;;;;;;7.03;4.90;;;20.40;93.10;;;;;;5111842;28;20206;-37
2022/08/08 08:16:27;;;;;;;5.32;4.10;;;20.50;93.00;;;;;;5117267;27;20702;-37
2022/08/08 08:19:06;;;;;;;9.57;6.20;;;20.50;92.90;;;;;;5110382;27;20263;-37
2022/08/08 08:21:40;;;;;;;8.57;5.88;;;20.60;93.10;;;;;;5118471;27;20697;-36
2022/08/08 08:24:25;;;;;;;5.90;4.60;;;20.70;93.00;;;;;;5120953;27;20206;-37
2022/08/08 08:27:01;;;;;;;7.90;5.65;;;20.80;92.90;;;;;;5116384;27;20193;-36
2022/08/08 08:29:30;;;;;;;5.90;4.95;;;20.80;93.10;;;;;;5124636;27;20579;-37
2022/08/08 08:31:57;;;;;;;5.97;4.32;;;20.90;93.00;;;;;;5123673;27;20216;-37
2022/08/08 08:34:32;;;;;;;12.07;4.60;;;20.90;92.80;;;;;;5129189;27;20690;-37
2022/08/08 08:37:04;;;;;;;7.10;4.50;;;20.90;92.80;;;;;;5126350;27;20305;-37
2022/08/08 08:39:37;;;;;;;8.05;4.03;;;21.00;93.00;;;;;;5115120;27;20258;-37
2022/08/08 08:42:25;;;;;;;8.82;4.97;;;21.10;92.80;;;;;;5109844;28;20198;-37
2022/08/08 08:45:07;;;;;;;6.95;3.95;;;21.10;92.90;;;;;;5116007;27;20699;-36
2022/08/08 08:47:54;;;;;;;7.30;4.30;;;21.10;92.90;;;;;;5104596;27;20560;-37
2022/08/08 08:50:30;;;;;;;7.78;3.78;;;21.10;92.80;;;;;;5091954;28;20728;-37
2022/08/08 08:53:09;;;;;;;6.18;3.90;;;21.10;92.80;;;;;;5091858;28;20318;-37
2022/08/08 08:56:00;;;;;;;7.80;4.00;;;21.20;92.80;;;;;;5115743;27;20282;-37
2022/08/08 08:58:41;;;;;;;6.95;4.10;;;21.30;92.70;;;;;;5121087;27;20719;-37
2022/08/08 09:01:11;;;;;;;7.63;3.60;;;21.30;92.70;;;;;;5134895;27;20274;-37
2022/08/08 09:03:43;;;;;;;8.00;3.63;;;21.40;92.50;;;;;;5137278;27;20212;-37
2022/08/08 09:06:24;;;;;;;7.25;4.00;;;21.50;92.50;;;;;;5131647;27;20201;-37
2022/08/08 09:09:07;;;;;;;7.63;3.38;;;21.60;92.30;;;;;;5109395;27;20198;-37
2022/08/08 09:11:56;;;;;;;4.07;2.90;;;21.60;92.40;;;;;;5116262;27;20211;-35
2022/08/08 09:14:34;;;;;;;7.63;3.60;;;21.60;92.40;;;;;;5133717;27;20643;-35
2022/08/08 09:17:10;;;;;;;4.28;3.00;;;21.60;92.20;;;;;;5121854;27;20605;-35
2022/08/08 09:19:45;;;;;;;4.65;3.30;;;21.60;92.20;;;;;;5108616;28;20307;-35
2022/08/08 09:22:34;;;;;;;6.50;3.90;;;21.70;92.10;;;;;;5127576;27;20603;-35
2022/08/08 09:25:03;;;;;;;4.55;3.40;;;21.60;92.10;;;;;;5101547;27;20198;-35
2022/08/08 09:27:35;;;;;;;6.82;3.28;;;21.70;92.30;;;;;;5113162;27;20305;-35
2022/08/08 09:30:25;;;;;;;4.55;3.00;;;21.70;92.30;;;;;;5115992;27;20197;-35
2022/08/08 09:32:58;;;;;;;4.30;3.90;;;21.80;92.40;;;;;;5133297;27;20563;-34
2022/08/08 09:35:51;;;;;;;5.93;2.92;;;21.90;92.20;;;;;;5110246;27;20221;-34
2022/08/08 09:38:48;;;;;;;4.95;2.97;;;22.00;92.40;;;;;;5117230;27;20186;-34
2022/08/08 09:41:39;;;;;;;4.53;3.63;;;22.00;92.40;;;;;;5119417;27;20247;-34
2022/08/08 09:44:39;;;;;;;5.10;3.55;;;22.10;92.40;;;;;;5114108;27;20785;-35
2022/08/08 09:47:07;;;;;;;6.50;3.83;;;22.20;92.50;;;;;;5119038;27;20193;-34
2022/08/08 09:49:57;;;;;;;4.25;3.20;;;22.20;92.30;;;;;;5109852;27;20285;-40
2022/08/08 09:52:33;;;;;;;5.30;3.70;;;22.30;92.30;;;;;;5097356;27;20220;-38
2022/08/08 09:55:30;;;;;;;6.20;3.50;;;22.20;92.40;;;;;;5120014;27;20206;-37
2022/08/08 09:58:19;;;;;;;4.93;3.28;;;22.20;92.20;;;;;;5104860;27;20229;-39
2022/08/08 10:01:08;;;;;;;3.22;2.90;;;22.30;92.10;;;;;;5115504;27;20213;-39
2022/08/08 10:04:00;;;;;;;4.70;3.30;;;22.40;92.30;;;;;;5107437;27;20199;-39
2022/08/08 10:06:41;;;;;;;3.63;3.17;;;22.50;92.30;;;;;;5124215;27;20278;-39
2022/08/08 10:09:13;;;;;;;7.47;3.25;;;22.50;92.10;;;;;;5120366;27;20212;-40
2022/08/08 10:11:47;;;;;;;3.60;3.25;;;22.60;92.10;;;;;;5128580;27;20251;-40
2022/08/08 10:14:39;;;;;;;5.38;2.80;;;22.60;91.80;;;;;;5123356;27;20198;-40
2022/08/08 10:17:09;;;;;;;5.93;3.45;;;22.60;92.10;;;;;;5146213;27;20211;-40
2022/08/08 10:20:03;;;;;;;5.40;3.30;;;22.70;91.80;;;;;;5099888;27;20300;-40
2022/08/08 10:22:38;;;;;;;3.85;3.25;;;22.70;91.70;;;;;;5132177;27;20206;-39
2022/08/08 10:25:22;;;;;;;3.35;2.67;;;22.70;91.40;;;;;;5124511;27;20337;-39
2022/08/08 10:27:52;;;;;;;5.78;2.72;;;22.80;91.80;;;;;;5113883;27;20310;-39
2022/08/08 10:30:27;;;;;;;4.93;2.28;;;22.80;90.70;;;;;;5101214;27;20209;-39
2022/08/08 10:33:17;;;;;;;3.97;2.50;;;22.90;91.30;;;;;;5124868;27;20598;-40
2022/08/08 10:35:55;;;;;;;3.22;2.40;;;22.80;91.30;;;;;;5117365;27;20200;-40
2022/08/08 10:38:42;;;;;;;3.30;2.33;;;22.90;91.20;;;;;;5103688;27;20205;-40
2022/08/08 10:41:18;;;;;;;2.80;2.28;;;22.80;91.30;;;;;;5122916;27;20756;-40
2022/08/08 10:43:50;;;;;;;2.28;1.77;;;22.90;91.20;;;;;;5107181;27;20215;-39
2022/08/08 10:46:30;;;;;;;3.13;1.98;;;23.00;91.20;;;;;;5109374;27;20297;-40
2022/08/08 10:48:58;;;;;;;2.58;1.50;;;23.00;90.60;;;;;;5099023;27;20218;-40
2022/08/08 10:51:34;;;;;;;2.20;1.50;;;23.00;90.70;;;;;;5124208;27;20197;-40
2022/08/08 10:54:21;;;;;;;2.03;1.40;;;23.00;90.70;;;;;;5091676;28;20230;-40
2022/08/08 10:56:56;;;;;;;4.72;1.60;;;23.10;88.90;;;;;;5113012;27;20193;-43
2022/08/08 10:59:26;;;;;;;1.23;1.13;;;23.00;89.30;;;;;;5108404;27;20695;-43
2022/08/08 11:02:05;;;;;;;2.65;1.60;;;23.00;90.00;;;;;;5098304;27;20213;-43
2022/08/08 11:04:44;;;;;;;4.68;1.70;;;23.10;89.30;;;;;;5104015;27;20216;-43
2022/08/08 11:07:38;;;;;;;2.30;1.30;;;23.20;89.50;;;;;;5119998;27;20215;-44
2022/08/08 11:10:25;;;;;;;2.83;1.25;;;23.10;88.70;;;;;;5123414;27;20219;-44
2022/08/08 11:13:00;;;;;;;1.77;1.20;;;23.20;89.50;;;;;;5128334;27;20294;-44
2022/08/08 11:15:52;;;;;;;5.75;1.80;;;23.20;89.90;;;;;;5121073;27;20212;-44
2022/08/08 11:18:38;;;;;;;4.88;1.13;;;23.30;90.00;;;;;;5117202;27;20571;-44
2022/08/08 11:21:07;;;;;;;4.30;1.15;;;23.30;87.70;;;;;;5106718;28;20558;-44
2022/08/08 11:23:41;;;;;;;1.38;0.90;;;23.40;87.60;;;;;;5109313;28;20202;-44
2022/08/08 11:26:16;;;;;;;1.60;1.35;;;23.50;88.60;;;;;;5115943;28;20233;-44
2022/08/08 11:28:46;;;;;;;1.98;1.20;;;23.50;87.40;;;;;;5123006;28;20238;-44
2022/08/08 11:31:18;;;;;;;2.63;1.25;;;23.60;88.30;;;;;;5106228;27;20795;-44
2022/08/08 11:33:51;;;;;;;3.90;1.33;;;23.70;89.60;;;;;;5113690;28;20695;-44
2022/08/08 11:36:32;;;;;;;3.67;1.33;;;23.80;87.60;;;;;;5095079;27;20207;-42
2022/08/08 11:39:04;;;;;;;4.78;1.10;;;23.70;89.10;;;;;;5118915;28;20556;-42
2022/08/08 11:41:44;;;;;;;3.72;1.20;;;23.80;89.70;;;;;;5097567;28;20194;-41
2022/08/08 11:44:13;;;;;;;3.05;0.95;;;23.90;89.00;;;;;;5089828;28;20287;-42
2022/08/08 11:46:41;;;;;;;4.25;1.17;;;24.00;89.20;;;;;;5123351;28;21323;-42
2022/08/08 11:49:12;;;;;;;2.25;0.90;;;24.00;89.30;;;;;;5119907;27;20553;-42
2022/08/08 11:51:42;;;;;;;2.08;1.10;;;24.10;89.70;;;;;;5126134;27;20212;-42
2022/08/08 11:54:32;;;;;;;3.08;1.35;;;24.10;89.90;;;;;;5131419;27;20748;-43
2022/08/08 11:57:16;;;;;;;4.32;1.30;;;24.20;88.80;;;;;;5117545;27;20231;-43
2022/08/08 12:00:00;;;;;;;2.28;1.02;;;24.30;89.00;;;;;;5105235;28;20640;-42
2022/08/08 12:02:53;;;;;;;3.00;1.25;;;24.40;90.10;;;;;;5124009;27;20205;-42
2022/08/08 12:05:32;;;;;;;3.47;1.33;;;24.50;89.20;;;;;;5125637;27;20235;-42
2022/08/08 12:08:00;;;;;;;2.13;1.02;;;24.60;89.90;;;;;;5125297;27;20749;-42
2022/08/08 12:10:30;;;;;;;3.13;1.40;;;24.60;90.00;;;;;;5127771;27;20444;-42
2022/08/08 12:13:08;;;;;;;4.88;1.60;;;24.70;90.00;;;;;;5116823;27;20223;-44
2022/08/08 12:15:38;;;;;;;4.05;1.65;;;24.80;89.20;;;;;;5130471;27;20208;-44
2022/08/08 12:18:20;;;;;;;2.47;1.33;;;24.80;88.80;;;;;;5123773;27;20292;-44
2022/08/08 12:20:56;;;;;;;3.10;1.30;;;24.80;90.00;;;;;;5130170;27;20210;-45
2022/08/08 12:23:35;;;;;;;3.72;1.27;;;24.80;90.00;;;;;;5120912;27;20313;-44
2022/08/08 12:26:44;;;;;;;2.90;1.00;;;24.90;89.10;;;;;;5127920;27;20236;-44
2022/08/08 12:29:31;;;;;;;3.17;1.20;;;24.90;88.70;;;;;;5114948;27;20197;-45
2022/08/08 12:32:12;;;;;;;2.65;0.95;;;24.90;88.90;;;;;;5127691;27;20221;-45
2022/08/08 12:34:56;;;;;;;3.20;1.20;;;24.90;89.30;;;;;;5091659;28;20201;-45
2022/08/08 12:37:34;;;;;;;4.45;1.25;;;24.90;89.80;;;;;;5113827;27;20201;-44
2022/08/08 12:40:17;;;;;;;3.20;1.50;;;24.90;89.40;;;;;;5106611;27;20201;-44
2022/08/08 12:42:52;;;;;;;2.80;1.40;;;25.00;90.20;;;;;;5128583;27;20213;-45
2022/08/08 12:45:19;;;;;;;4.55;1.40;;;25.10;89.80;;;;;;5127679;27;20296;-45
2022/08/08 12:48:22;;;;;;;3.22;1.33;;;25.20;90.10;;;;;;5113241;27;20216;-45
2022/08/08 12:51:04;;;;;;;3.53;1.23;;;25.20;89.40;;;;;;5106595;27;20297;-45
2022/08/08 12:53:35;;;;;;;3.70;1.40;;;25.20;88.10;;;;;;5116540;27;20218;-45
2022/08/08 12:56:12;;;;;;;2.58;1.30;;;25.20;89.70;;;;;;5122032;27;20229;-44
2022/08/08 12:58:52;;;;;;;2.78;1.42;;;25.30;89.20;;;;;;5109905;27;20328;-45
2022/08/08 13:01:33;;;;;;;3.08;1.00;;;25.40;90.00;;;;;;5108006;27;20194;-44
2022/08/08 13:04:15;;;;;;;1.55;1.05;;;25.50;90.20;;;;;;5091268;27;20202;-44
2022/08/08 13:06:55;;;;;;;1.17;1.10;;;25.60;89.00;;;;;;5118117;27;20220;-44
2022/08/08 13:09:33;;;;;;;5.90;1.25;;;25.60;88.80;;;;;;5114181;27;20206;-42
2022/08/08 13:12:31;;;;;;;6.63;1.30;;;25.70;87.90;;;;;;5115534;27;20671;-42
2022/08/08 13:15:05;;;;;;;1.85;1.20;;;25.70;88.70;;;;;;5129613;27;20396;-42
2022/08/08 13:17:34;;;;;;;2.72;1.40;;;25.70;87.70;;;;;;5121942;27;20676;-42
2022/08/08 13:20:22;;;;;;;1.95;1.20;;;25.70;88.10;;;;;;5110636;27;20309;-43
2022/08/08 13:22:55;;;;;;;3.38;1.30;;;25.70;89.20;;;;;;5109356;27;20634;-42
2022/08/08 13:25:45;;;;;;;3.05;1.40;;;25.80;89.60;;;;;;5115126;27;20208;-42
2022/08/08 13:28:29;;;;;;;2.75;1.38;;;25.80;88.10;;;;;;5127061;27;20880;-42
2022/08/08 13:31:03;;;;;;;3.40;1.27;;;25.90;86.60;;;;;;5092561;28;20218;-42
2022/08/08 13:33:32;;;;;;;2.20;1.20;;;25.90;88.10;;;;;;5108219;27;20703;-42
2022/08/08 13:36:09;;;;;;;3.20;1.10;;;25.90;88.40;;;;;;5111318;27;20198;-42
2022/08/08 13:38:37;;;;;;;4.50;1.42;;;25.90;88.50;;;;;;5094443;27;20528;-39
2022/08/08 13:41:07;;;;;;;3.25;1.10;;;26.00;87.70;;;;;;5108209;28;20240;-39
2022/08/08 13:43:45;;;;;;;12.43;1.73;;;25.90;87.90;;;;;;5111587;27;20200;-39
2022/08/08 13:46:14;;;;;;;12.88;2.28;;;26.00;87.50;;;;;;5123133;27;20251;-39
2022/08/08 13:48:55;;;;;;;2.38;1.15;;;26.00;88.40;;;;;;5093655;28;20307;-38
2022/08/08 13:51:57;;;;;;;2.30;1.00;;;26.00;87.70;;;;;;5122196;27;20211;-38
2022/08/08 13:54:29;;;;;;;2.97;1.08;;;26.10;87.60;;;;;;5100273;27;20236;-40
2022/08/08 13:57:01;;;;;;;2.58;1.00;;;26.10;88.10;;;;;;5107052;28;20212;-39
2022/08/08 13:59:31;;;;;;;2.03;1.00;;;26.20;87.70;;;;;;5112856;27;20321;-40
2022/08/08 14:02:00;;;;;;;2.05;1.15;;;26.30;87.50;;;;;;5125683;27;20194;-40
2022/08/08 14:04:41;;;;;;;1.17;0.80;;;26.40;87.80;;;;;;5101615;27;20205;-40
2022/08/08 14:07:21;;;;;;;1.10;0.80;;;26.40;87.40;;;;;;5113033;27;20217;-41
2022/08/08 14:09:50;;;;;;;1.98;0.98;;;26.40;87.80;;;;;;5104363;27;20229;-40